Time;durP1;ratioP1;P1;durP2;ratioP2;P2;SDS_P1;SDS_P2;PMS_P1;PMS_P2;Temp;Humidity;BMP_temperature;BMP_pressure;BME280_temperature;BME280_humidity;BME280_pressure;Samples;Min_cycle;Max_cycle;Signal;HPM_P1;HPM_P2
2023/04/07 00:00:04;;;;;;;13.18;11.88;;;;;;;9.46;78.49;100166.72;10447448;28;20487;-68
2023/04/07 00:05:06;;;;;;;13.60;12.20;;;;;;;9.49;78.40;100174.44;10436076;28;20056;-65
2023/04/07 00:10:08;;;;;;;13.30;11.90;;;;;;;9.49;78.31;100163.81;10433369;28;20163;-67
2023/04/07 00:15:09;;;;;;;12.75;11.45;;;;;;;9.47;78.45;100160.44;10432819;28;20103;-69
2023/04/07 00:20:11;;;;;;;13.75;11.45;;;;;;;9.35;78.96;100138.34;10436051;28;20187;-68
2023/04/07 00:25:13;;;;;;;14.38;12.98;;;;;;;9.43;79.26;100151.00;10429756;28;20068;-66
2023/04/07 00:30:14;;;;;;;15.13;12.80;;;;;;;9.43;79.20;100148.34;10434951;28;20256;-68
2023/04/07 00:35:16;;;;;;;13.27;11.70;;;;;;;9.37;79.72;100131.06;10436225;28;20065;-67
2023/04/07 00:40:18;;;;;;;13.80;12.20;;;;;;;9.46;78.94;100140.16;10432663;28;20056;-69
2023/04/07 00:45:19;;;;;;;11.70;10.50;;;;;;;9.41;78.41;100133.50;10440194;28;20044;-68
2023/04/07 00:50:21;;;;;;;12.32;11.13;;;;;;;9.39;79.47;100117.69;10439263;28;20053;-68
2023/04/07 00:55:23;;;;;;;13.32;11.95;;;;;;;9.38;79.40;100113.31;10430745;28;20059;-68
2023/04/07 01:00:26;;;;;;;15.00;11.60;;;;;;;9.44;78.52;100119.97;10431061;28;20163;-69
2023/04/07 01:05:41;;;;;;;13.10;11.80;;;;;;;9.42;80.09;100103.31;10425254;28;20950;-66
2023/04/07 01:10:59;;;;;;;12.80;11.48;;;;;;;9.34;79.77;100098.59;10432615;28;20052;-68
2023/04/07 01:16:04;;;;;;;13.02;11.30;;;;;;;9.38;78.75;100098.25;10436990;28;20048;-68
2023/04/07 01:21:12;;;;;;;13.57;11.38;;;;;;;9.38;78.85;100086.75;10426151;28;20047;-70
2023/04/07 01:26:31;;;;;;;11.85;10.73;;;;;;;9.35;79.43;100090.50;10426061;28;20493;-67
2023/04/07 01:31:33;;;;;;;11.32;10.23;;;;;;;9.38;79.56;100084.09;10426520;28;20359;-68
2023/04/07 01:36:35;;;;;;;13.23;11.07;;;;;;;9.32;79.93;100076.59;10428003;28;20412;-69
2023/04/07 01:41:38;;;;;;;11.63;10.52;;;;;;;9.36;79.70;100075.41;10428030;28;20477;-70
2023/04/07 01:46:40;;;;;;;11.65;10.55;;;;;;;9.34;79.75;100067.56;10428255;28;20123;-69
2023/04/07 01:51:42;;;;;;;11.38;10.18;;;;;;;9.31;79.27;100066.97;10430096;28;20079;-69
2023/04/07 01:56:44;;;;;;;11.35;10.25;;;;;;;9.28;79.92;100060.06;10428211;28;21108;-70
2023/04/07 02:01:46;;;;;;;11.57;10.48;;;;;;;9.27;80.69;100055.72;10436639;28;20051;-66
2023/04/07 02:06:53;;;;;;;12.35;10.63;;;;;;;9.31;80.39;100061.66;10425486;28;20056;-70
2023/04/07 02:11:58;;;;;;;10.98;9.88;;;;;;;9.30;81.06;100060.78;10432551;28;20084;-67
2023/04/07 02:17:01;;;;;;;11.85;10.65;;;;;;;9.24;80.96;100052.47;10429414;28;20595;-70
2023/04/07 02:22:04;;;;;;;11.15;10.05;;;;;;;9.25;81.06;100048.81;10436113;28;20059;-66
2023/04/07 02:27:05;;;;;;;11.80;9.70;;;;;;;9.29;81.60;100052.94;10422848;28;20041;-69
2023/04/07 02:32:07;;;;;;;11.60;10.35;;;;;;;9.14;82.33;100034.59;10431056;28;20514;-69
2023/04/07 02:37:08;;;;;;;10.90;9.38;;;;;;;9.25;80.89;100039.06;10427202;28;20048;-67
2023/04/07 02:42:10;;;;;;;11.45;10.27;;;;;;;9.24;81.80;100040.03;10433338;28;20057;-68
2023/04/07 02:47:11;;;;;;;11.25;10.15;;;;;;;9.24;81.58;100033.88;10434652;28;20360;-67
2023/04/07 02:52:12;;;;;;;11.15;10.02;;;;;;;9.21;82.42;100037.63;10440362;28;20135;-67
2023/04/07 02:57:14;;;;;;;10.55;9.50;;;;;;;9.27;81.73;100046.91;10429957;28;20476;-68
2023/04/07 03:02:15;;;;;;;12.55;10.80;;;;;;;9.27;82.32;100041.59;10436729;28;20414;-69
2023/04/07 03:07:17;;;;;;;10.18;9.13;;;;;;;9.28;82.15;100035.34;10433968;28;20048;-67
2023/04/07 03:12:19;;;;;;;10.00;8.98;;;;;;;9.23;82.99;100025.03;10433126;28;20592;-68
2023/04/07 03:17:20;;;;;;;10.15;9.15;;;;;;;9.23;83.26;100025.03;10433344;28;20154;-67
2023/04/07 03:22:22;;;;;;;10.27;9.20;;;;;;;9.27;82.80;100028.31;10439111;28;20054;-65
2023/04/07 03:27:23;;;;;;;10.45;9.45;;;;;;;9.18;83.13;100024.56;10437299;28;20047;-67
2023/04/07 03:32:25;;;;;;;10.65;9.65;;;;;;;9.18;83.01;100014.78;10431700;28;20340;-66
2023/04/07 03:37:26;;;;;;;9.93;9.02;;;;;;;9.18;83.02;100014.78;10438551;28;20045;-66
2023/04/07 03:42:27;;;;;;;10.63;9.52;;;;;;;9.16;82.81;100015.91;10455583;28;20056;-66
2023/04/07 03:47:29;;;;;;;10.02;9.13;;;;;;;9.12;83.42;100009.97;10458669;28;20052;-68
2023/04/07 03:52:30;;;;;;;11.50;10.27;;;;;;;9.15;83.49;100008.88;10434148;28;20190;-68
2023/04/07 03:57:32;;;;;;;11.85;10.13;;;;;;;9.13;83.40;100016.13;10430870;28;20052;-66
2023/04/07 04:02:33;;;;;;;11.13;9.93;;;;;;;9.12;84.08;100019.75;10430281;28;20048;-67
2023/04/07 04:07:35;;;;;;;11.55;10.45;;;;;;;9.09;84.01;100010.19;10430370;28;20569;-66
2023/04/07 04:12:36;;;;;;;11.55;10.35;;;;;;;8.85;84.67;99997.88;10430093;28;20427;-67
2023/04/07 04:17:38;;;;;;;11.95;10.73;;;;;;;9.06;84.55;100010.44;10431779;28;20052;-69
2023/04/07 04:22:39;;;;;;;11.02;9.93;;;;;;;9.03;84.30;100010.69;10424187;28;20052;-68
2023/04/07 04:27:40;;;;;;;12.63;11.15;;;;;;;9.10;83.87;100014.56;10428953;28;20255;-68
2023/04/07 04:32:42;;;;;;;11.90;10.68;;;;;;;9.10;83.64;100011.06;10428952;28;20066;-70
2023/04/07 04:37:44;;;;;;;12.82;11.00;;;;;;;9.09;84.15;100015.50;10428243;28;20048;-67
2023/04/07 04:42:45;;;;;;;12.00;10.80;;;;;;;9.14;83.90;100021.31;10435790;28;20572;-68
2023/04/07 04:47:47;;;;;;;11.63;10.43;;;;;;;9.09;83.13;100007.53;10429732;28;20076;-68
2023/04/07 04:52:48;;;;;;;11.18;10.07;;;;;;;9.06;83.18;100015.75;10431092;28;20397;-66
2023/04/07 04:57:49;;;;;;;11.18;10.07;;;;;;;9.11;82.87;100021.56;10433133;28;20663;-67
2023/04/07 05:02:51;;;;;;;10.80;9.70;;;;;;;9.06;84.39;100021.06;10430361;28;20048;-68
2023/04/07 05:07:52;;;;;;;10.98;9.85;;;;;;;9.05;84.60;100027.31;10427052;28;20239;-65
2023/04/07 05:12:55;;;;;;;10.73;9.65;;;;;;;9.03;84.25;100032.75;10430863;28;20264;-68
2023/04/07 05:17:56;;;;;;;10.93;9.93;;;;;;;9.02;84.63;100032.88;10429286;28;20392;-67
2023/04/07 05:22:58;;;;;;;11.20;10.10;;;;;;;9.01;84.47;100024.06;10434913;28;20518;-68
2023/04/07 05:27:59;;;;;;;11.07;9.70;;;;;;;9.00;84.70;100021.53;10435740;28;20041;-66
2023/04/07 05:33:00;;;;;;;12.48;10.65;;;;;;;9.03;84.65;100026.63;10429227;28;20592;-67
2023/04/07 05:38:02;;;;;;;10.68;9.68;;;;;;;8.99;84.96;100009.22;10424952;28;20310;-66
2023/04/07 05:43:03;;;;;;;12.52;10.40;;;;;;;9.06;84.52;100020.22;10424103;28;20126;-66
2023/04/07 05:48:05;;;;;;;11.98;10.80;;;;;;;9.02;84.16;100019.59;10429000;28;20065;-65
2023/04/07 05:53:06;;;;;;;11.75;10.55;;;;;;;9.02;84.67;100027.56;10437282;28;20064;-70
2023/04/07 05:58:08;;;;;;;12.75;11.27;;;;;;;9.03;84.58;100022.13;10452773;28;20124;-70
2023/04/07 06:03:09;;;;;;;11.30;10.20;;;;;;;9.02;84.14;100022.25;10434849;28;20056;-66
2023/04/07 06:08:11;;;;;;;12.10;10.85;;;;;;;8.97;84.02;100011.16;10428173;28;20049;-69
2023/04/07 06:13:12;;;;;;;11.23;10.13;;;;;;;9.03;83.84;100024.78;10432748;28;20301;-66
2023/04/07 06:18:14;;;;;;;11.05;9.95;;;;;;;9.00;83.69;100019.72;10434926;28;20552;-70
2023/04/07 06:23:15;;;;;;;11.38;10.20;;;;;;;9.01;84.04;100024.06;10432858;28;20430;-69
2023/04/07 06:28:17;;;;;;;11.10;10.05;;;;;;;9.02;84.54;100030.22;10435220;28;20444;-68
2023/04/07 06:33:22;;;;;;;12.65;10.93;;;;;;;9.01;84.46;100024.06;10433907;28;20088;-68
2023/04/07 06:38:24;;;;;;;11.32;9.80;;;;;;;9.04;84.52;100028.31;10430154;28;20149;-69
2023/04/07 06:43:25;;;;;;;11.95;10.75;;;;;;;9.01;84.79;100021.44;10431869;28;20393;-66
2023/04/07 06:48:27;;;;;;;11.48;10.30;;;;;;;9.06;84.95;100031.69;10433185;28;20149;-65
2023/04/07 06:53:28;;;;;;;11.35;10.35;;;;;;;9.06;84.95;100029.03;10433220;28;20084;-66
2023/04/07 06:58:30;;;;;;;11.48;10.30;;;;;;;9.08;84.66;100035.06;10432424;28;20061;-66
2023/04/07 07:03:32;;;;;;;11.63;10.43;;;;;;;9.06;85.27;100047.63;10431921;28;20064;-69
2023/04/07 07:08:34;;;;;;;12.38;11.13;;;;;;;9.07;85.74;100040.47;10434445;28;20049;-68
2023/04/07 07:13:36;;;;;;;12.27;10.68;;;;;;;9.06;86.07;100034.34;10430511;28;20254;-67
2023/04/07 07:18:37;;;;;;;11.65;10.35;;;;;;;9.14;85.55;100041.72;10431492;28;20575;-67
2023/04/07 07:23:39;;;;;;;12.68;11.07;;;;;;;9.14;85.89;100039.91;10437364;28;20150;-68
2023/04/07 07:28:40;;;;;;;11.93;10.75;;;;;;;9.16;85.67;100045.94;10433832;28;20044;-62
2023/04/07 07:33:44;;;;;;;11.25;10.07;;;;;;;9.27;85.82;100041.59;10436292;28;20094;-66
2023/04/07 07:38:49;;;;;;;11.30;9.95;;;;;;;9.26;85.05;100047.88;10427125;28;20651;-67
2023/04/07 07:43:50;;;;;;;13.18;9.65;;;;;;;9.33;84.75;100060.56;10444813;28;20053;-66
2023/04/07 07:48:52;;;;;;;21.27;19.08;;;;;;;9.33;84.88;100059.72;10431217;28;20091;-68
2023/04/07 07:53:54;;;;;;;16.95;15.13;;;;;;;9.31;85.28;100056.34;10432699;28;20053;-67
2023/04/07 07:58:56;;;;;;;15.80;14.25;;;;;;;9.38;84.86;100055.75;10428863;28;20051;-66
2023/04/07 08:03:58;;;;;;;50.40;46.00;;;;;;;9.42;85.01;100063.47;10429094;28;20158;-69
2023/04/07 08:09:00;;;;;;;19.98;18.00;;;;;;;9.49;85.64;100076.16;10426973;28;20050;-69
2023/04/07 08:14:01;;;;;;;14.45;11.55;;;;;;;9.49;85.08;100070.00;10429672;28;20052;-67
2023/04/07 08:19:03;;;;;;;11.98;10.73;;;;;;;9.47;84.71;100078.09;10427339;28;20048;-66
2023/04/07 08:24:04;;;;;;;11.82;10.57;;;;;;;9.45;84.74;100081.81;10434217;28;20055;-63
2023/04/07 08:29:06;;;;;;;11.68;10.52;;;;;;;9.30;84.62;100059.97;10432589;28;20044;-67
2023/04/07 08:34:07;;;;;;;11.35;10.15;;;;;;;9.57;85.77;100087.97;10431801;28;20056;-63
2023/04/07 08:39:08;;;;;;;10.43;9.35;;;;;;;9.61;85.54;100089.41;10428063;28;20059;-66
2023/04/07 08:44:10;;;;;;;10.85;9.82;;;;;;;9.68;85.25;100090.63;10429124;28;20083;-67
2023/04/07 08:49:14;;;;;;;10.30;9.30;;;;;;;9.68;84.71;100091.50;10429027;28;20072;-64
2023/04/07 08:54:21;;;;;;;10.80;9.70;;;;;;;9.75;84.46;100096.31;10427584;28;20396;-66
2023/04/07 08:59:27;;;;;;;11.88;10.32;;;;;;;9.78;85.19;100094.25;10430362;28;20325;-66
2023/04/07 09:04:28;;;;;;;11.50;10.40;;;;;;;9.82;84.88;100101.00;10424336;28;20065;-70
2023/04/07 09:09:30;;;;;;;11.95;10.18;;;;;;;9.83;85.61;100097.41;10425043;28;20356;-67
2023/04/07 09:14:31;;;;;;;10.68;9.57;;;;;;;9.90;85.03;100105.72;10428370;28;20714;-68
2023/04/07 09:19:33;;;;;;;12.77;11.00;;;;;;;9.90;84.68;100100.41;10425538;28;20133;-66
2023/04/07 09:24:34;;;;;;;11.32;10.23;;;;;;;9.88;84.67;100108.50;10428109;28;20049;-65
2023/04/07 09:29:36;;;;;;;12.52;11.23;;;;;;;9.97;84.37;100108.72;10428378;28;20056;-66
2023/04/07 09:34:40;;;;;;;11.25;10.18;;;;;;;10.01;85.35;100102.19;10424897;28;20451;-64
2023/04/07 09:39:50;;;;;;;11.87;10.50;;;;;;;10.13;85.25;100109.16;10427685;28;20045;-63
2023/04/07 09:44:52;;;;;;;12.18;11.05;;;;;;;10.16;84.26;100111.56;10426882;28;20599;-68
2023/04/07 09:49:55;;;;;;;12.07;10.68;;;;;;;10.05;84.80;100100.97;10431749;28;20049;-64
2023/04/07 09:54:56;;;;;;;12.70;11.40;;;;;;;10.17;84.48;100112.44;10453827;28;20140;-65
2023/04/07 09:59:58;;;;;;;11.82;10.73;;;;;;;10.15;84.12;100111.69;10435436;28;20044;-65
2023/04/07 10:05:00;;;;;;;13.18;11.88;;;;;;;10.16;84.33;100113.41;10437312;28;20539;-67
2023/04/07 10:10:06;;;;;;;11.60;10.27;;;;;;;10.17;84.46;100117.75;10438726;28;20382;-65
2023/04/07 10:15:12;;;;;;;12.48;11.27;;;;;;;10.14;85.18;100110.88;10432666;28;20064;-64
2023/04/07 10:20:16;;;;;;;12.80;11.50;;;;;;;10.15;85.80;100115.22;10429682;28;20060;-70
2023/04/07 10:25:21;;;;;;;10.83;9.80;;;;;;;10.10;86.02;100112.06;10433607;28;20052;-64
2023/04/07 10:30:26;;;;;;;14.55;13.10;;;;;;;10.20;85.86;100123.66;10432737;28;20282;-65
2023/04/07 10:36:07;;;;;;;14.45;13.02;;;;;;;10.21;87.00;100129.84;10430822;28;20279;-67
2023/04/07 10:41:35;;;;;;;13.35;12.00;;;;;;;10.26;88.15;100127.66;10436482;28;20051;-63
2023/04/07 10:46:50;;;;;;;11.93;10.82;;;;;;;10.40;87.37;100139.84;10430125;28;20172;-65
2023/04/07 10:52:10;;;;;;;12.60;11.32;;;;;;;10.46;88.10;100141.19;10433537;28;20053;-67
2023/04/07 10:57:13;;;;;;;12.80;11.48;;;;;;;10.48;87.99;100145.41;10434118;28;20052;-66
2023/04/07 11:02:24;;;;;;;12.02;10.93;;;;;;;10.51;86.70;100147.81;10432599;28;20141;-65
2023/04/07 11:07:46;;;;;;;11.93;10.73;;;;;;;10.52;86.91;100154.81;10428333;28;20539;-67
2023/04/07 11:12:58;;;;;;;11.07;10.10;;;;;;;10.47;87.31;100151.69;10428207;28;20556;-67
2023/04/07 11:18:09;;;;;;;11.95;10.68;;;;;;;10.51;88.03;100161.13;10432997;28;20075;-66
2023/04/07 11:23:11;;;;;;;10.90;9.80;;;;;;;10.54;87.32;100150.22;10428337;28;20584;-67
2023/04/07 11:28:13;;;;;;;11.95;10.65;;;;;;;10.49;85.36;100163.03;10429588;28;20665;-66
2023/04/07 11:33:19;;;;;;;10.30;9.27;;;;;;;10.42;86.58;100159.22;10430811;28;20057;-65
2023/04/07 11:38:22;;;;;;;11.63;10.50;;;;;;;10.51;86.62;100153.13;10428689;28;20060;-66
2023/04/07 11:43:26;;;;;;;10.90;9.75;;;;;;;10.67;86.62;100162.53;10437256;28;20291;-64
2023/04/07 11:48:29;;;;;;;10.02;9.02;;;;;;;10.67;86.59;100158.03;10443600;28;20432;-65
2023/04/07 11:53:38;;;;;;;12.00;10.75;;;;;;;10.70;86.12;100167.59;10490324;28;20048;-69
2023/04/07 11:58:46;;;;;;;11.77;10.57;;;;;;;10.61;87.18;100174.50;10461733;28;20278;-66
2023/04/07 12:04:00;;;;;;;10.35;9.40;;;;;;;10.67;86.94;100178.50;10432261;28;20485;-67
2023/04/07 12:09:04;;;;;;;7.78;7.07;;;;;;;10.65;85.69;100180.44;10430718;28;20098;-67
2023/04/07 12:14:07;;;;;;;7.45;6.65;;;;;;;10.72;84.81;100174.50;10436446;28;20045;-66
2023/04/07 12:19:09;;;;;;;7.15;6.45;;;;;;;10.75;84.52;100181.38;10439519;28;20415;-66
2023/04/07 12:24:10;;;;;;;8.27;7.53;;;;;;;10.75;84.90;100182.22;10438978;28;20060;-67
2023/04/07 12:29:12;;;;;;;8.38;7.57;;;;;;;10.89;84.76;100194.38;10446921;28;20094;-65
2023/04/07 12:34:13;;;;;;;7.50;6.80;;;;;;;10.94;84.71;100186.88;10439959;28;20447;-65
2023/04/07 12:39:15;;;;;;;8.57;7.72;;;;;;;11.11;84.98;100189.94;10438193;28;20064;-67
2023/04/07 12:44:17;;;;;;;8.07;7.28;;;;;;;11.31;83.46;100193.59;10440833;28;20095;-69
2023/04/07 12:49:18;;;;;;;7.65;6.90;;;;;;;11.49;80.91;100191.19;10433012;28;20052;-67
2023/04/07 12:54:20;;;;;;;9.10;6.68;;;;;;;11.61;81.34;100199.97;10434533;28;20120;-67
2023/04/07 12:59:22;;;;;;;5.85;5.35;;;;;;;11.92;79.20;100198.16;10433443;28;20147;-67
2023/04/07 13:04:25;;;;;;;6.15;5.65;;;;;;;12.10;78.41;100200.19;10434106;28;20061;-65
2023/04/07 13:09:27;;;;;;;5.97;5.47;;;;;;;12.15;78.01;100200.66;10437579;28;20691;-69
2023/04/07 13:14:29;;;;;;;5.65;5.15;;;;;;;12.55;76.47;100199.78;10431818;28;20044;-69
2023/04/07 13:19:30;;;;;;;6.65;6.05;;;;;;;12.77;74.02;100198.69;10432862;28;20053;-68
2023/04/07 13:24:32;;;;;;;5.95;5.40;;;;;;;12.46;75.29;100195.25;10432412;28;20056;-64
2023/04/07 13:29:33;;;;;;;5.93;5.30;;;;;;;12.37;76.71;100194.28;10433592;28;20059;-67
2023/04/07 13:34:35;;;;;;;5.65;5.15;;;;;;;12.60;76.67;100196.72;10437722;28;20110;-69
2023/04/07 13:39:37;;;;;;;4.90;4.50;;;;;;;12.70;75.23;100193.06;10429523;28;20347;-65
2023/04/07 13:44:39;;;;;;;4.78;4.38;;;;;;;12.89;74.58;100199.41;10441322;28;20444;-64
2023/04/07 13:49:41;;;;;;;3.60;3.30;;;;;;;13.01;73.61;100200.94;10431268;28;20048;-65
2023/04/07 13:54:42;;;;;;;4.25;3.22;;;;;;;13.46;69.88;100198.69;10432229;28;20064;-68
2023/04/07 13:59:44;;;;;;;3.28;3.08;;;;;;;13.43;69.49;100189.13;10438634;28;20131;-64
2023/04/07 14:04:46;;;;;;;7.40;6.55;;;;;;;13.43;69.71;100197.97;10436053;28;20056;-65
2023/04/07 14:09:47;;;;;;;3.67;3.38;;;;;;;13.34;69.43;100193.50;10428169;28;20133;-68
2023/04/07 14:14:51;;;;;;;3.03;2.70;;;;;;;13.02;69.40;100207.97;10432645;28;20517;-66
2023/04/07 14:19:52;;;;;;;4.00;3.60;;;;;;;12.69;71.60;100203.88;10432017;28;20049;-66
2023/04/07 14:24:55;;;;;;;4.95;4.55;;;;;;;12.54;73.10;100208.78;10429972;28;20136;-70
2023/04/07 14:29:58;;;;;;;4.13;3.83;;;;;;;13.04;72.14;100202.50;10431785;28;20140;-69
2023/04/07 14:35:00;;;;;;;4.00;3.70;;;;;;;13.65;70.21;100195.97;10446236;28;20066;-69
2023/04/07 14:40:02;;;;;;;4.72;4.32;;;;;;;13.86;69.32;100198.44;10442628;28;20518;-68
2023/04/07 14:45:04;;;;;;;3.42;3.10;;;;;;;13.94;68.67;100193.19;10440432;28;20684;-69
2023/04/07 14:50:06;;;;;;;3.72;2.90;;;;;;;13.79;68.10;100198.16;10436513;28;20044;-67
2023/04/07 14:55:07;;;;;;;2.22;1.63;;;;;;;13.79;65.71;100195.50;10441232;28;20177;-67
2023/04/07 15:00:09;;;;;;;3.28;2.97;;;;;;;13.81;66.84;100191.84;10432567;28;20338;-64
2023/04/07 15:05:11;;;;;;;2.78;2.20;;;;;;;13.54;66.22;100198.81;10443161;28;20090;-68
2023/04/07 15:10:12;;;;;;;2.55;1.83;;;;;;;13.72;65.58;100205.13;10436982;28;20144;-66
2023/04/07 15:15:14;;;;;;;2.03;1.60;;;;;;;13.74;63.93;100213.81;10473797;28;20123;-68
2023/04/07 15:20:16;;;;;;;3.85;0.90;;;;;;;13.31;64.69;100211.63;10471140;28;20069;-66
2023/04/07 15:25:17;;;;;;;0.88;0.68;;;;;;;13.31;63.71;100215.13;10433792;28;20046;-67
2023/04/07 15:30:18;;;;;;;1.70;1.40;;;;;;;13.12;65.13;100212.47;10434503;28;20043;-67
2023/04/07 15:35:20;;;;;;;1.17;0.80;;;;;;;13.23;64.53;100210.50;10433010;28;20052;-66
2023/04/07 15:40:21;;;;;;;1.50;1.15;;;;;;;13.27;62.78;100211.09;10433978;28;20067;-67
2023/04/07 15:45:23;;;;;;;1.35;0.75;;;;;;;13.37;63.23;100211.09;10435624;28;20041;-66
2023/04/07 15:50:26;;;;;;;1.77;0.60;;;;;;;13.34;62.74;100220.22;10435739;28;20132;-67
2023/04/07 15:55:27;;;;;;;1.17;0.73;;;;;;;13.28;63.21;100223.44;10442192;28;20140;-64
2023/04/07 16:00:32;;;;;;;0.93;0.70;;;;;;;13.12;63.49;100228.50;10448446;28;20052;-68
2023/04/07 16:05:34;;;;;;;2.80;2.30;;;;;;;12.97;65.42;100231.63;10472445;28;20048;-70
2023/04/07 16:10:35;;;;;;;2.55;2.35;;;;;;;12.93;66.59;100240.06;10450923;28;20056;-67
2023/04/07 16:15:37;;;;;;;2.80;2.60;;;;;;;12.82;67.30;100235.66;10433881;28;20048;-67
2023/04/07 16:20:42;;;;;;;4.50;3.30;;;;;;;12.67;69.08;100246.75;10431410;28;20056;-68
2023/04/07 16:25:43;;;;;;;3.63;2.97;;;;;;;12.64;69.44;100244.34;10426589;28;20060;-67
2023/04/07 16:30:44;;;;;;;3.33;2.88;;;;;;;12.64;68.35;100247.03;10440973;28;20056;-62
2023/04/07 16:35:46;;;;;;;2.38;2.10;;;;;;;12.48;68.14;100252.03;10431567;28;20056;-66
2023/04/07 16:40:47;;;;;;;2.40;2.05;;;;;;;12.32;67.92;100257.88;10433205;28;20053;-66
2023/04/07 16:46:04;;;;;;;2.92;2.28;;;;;;;12.22;68.11;100263.19;10429803;28;20126;-67
2023/04/07 16:51:06;;;;;;;1.65;1.55;;;;;;;12.11;68.62;100271.28;10428623;28;20175;-67
2023/04/07 16:56:18;;;;;;;1.83;1.52;;;;;;;12.08;68.86;100274.22;10432402;28;20065;-65
2023/04/07 17:01:20;;;;;;;3.63;1.23;;;;;;;12.08;68.48;100275.03;10431677;28;20315;-68
2023/04/07 17:06:21;;;;;;;1.70;1.13;;;;;;;12.02;69.29;100270.25;10426874;28;20411;-69
2023/04/07 17:11:23;;;;;;;1.70;1.60;;;;;;;11.98;68.77;100277.69;10443266;28;20480;-68
2023/04/07 17:16:24;;;;;;;2.00;1.80;;;;;;;11.95;68.85;100288.63;10430296;28;20049;-66
2023/04/07 17:21:26;;;;;;;1.48;1.10;;;;;;;11.83;68.44;100289.63;10433492;28;20060;-66
2023/04/07 17:26:28;;;;;;;1.73;1.58;;;;;;;11.73;68.99;100288.72;10434257;28;20441;-67
2023/04/07 17:31:30;;;;;;;2.03;1.83;;;;;;;11.62;68.90;100290.47;10433064;28;20398;-66
2023/04/07 17:36:32;;;;;;;1.15;1.05;;;;;;;11.52;69.30;100294.88;10428989;28;20693;-68
2023/04/07 17:41:34;;;;;;;1.80;1.55;;;;;;;11.45;69.63;100301.69;10431020;28;20481;-67
2023/04/07 17:46:35;;;;;;;1.90;1.67;;;;;;;11.35;70.10;100314.97;10436943;28;20052;-62
2023/04/07 17:51:37;;;;;;;2.13;1.90;;;;;;;11.25;70.75;100312.19;10429857;28;20056;-65
2023/04/07 17:56:38;;;;;;;1.80;1.60;;;;;;;11.18;70.67;100332.31;10441444;28;20044;-65
2023/04/07 18:01:40;;;;;;;1.70;1.50;;;;;;;11.05;71.25;100331.63;10443137;28;20057;-68
2023/04/07 18:06:41;;;;;;;1.92;1.73;;;;;;;11.09;71.20;100349.06;10427102;28;20052;-71
2023/04/07 18:11:42;;;;;;;2.20;1.40;;;;;;;11.11;71.39;100341.81;10434087;28;20340;-67
2023/04/07 18:16:44;;;;;;;3.25;2.28;;;;;;;11.13;71.75;100346.00;10442010;28;20052;-64
2023/04/07 18:21:46;;;;;;;2.28;2.08;;;;;;;11.14;72.19;100347.72;10436939;28;20051;-63
2023/04/07 18:26:47;;;;;;;2.90;2.60;;;;;;;11.14;72.43;100346.88;10437832;28;20294;-66
2023/04/07 18:31:48;;;;;;;3.63;2.33;;;;;;;11.14;72.80;100358.38;10442136;28;20386;-64
2023/04/07 18:36:50;;;;;;;2.25;1.73;;;;;;;11.12;73.67;100370.13;10443789;28;20456;-69
2023/04/07 18:41:52;;;;;;;2.58;2.38;;;;;;;11.14;73.67;100384.19;10496143;28;20073;-70
2023/04/07 18:46:53;;;;;;;2.60;2.40;;;;;;;11.11;74.20;100389.75;10458030;28;20500;-67
2023/04/07 18:51:54;;;;;;;2.47;2.13;;;;;;;11.02;74.32;100388.66;10436841;28;22383;-69
2023/04/07 18:56:56;;;;;;;1.77;1.67;;;;;;;10.99;73.89;100394.25;10436498;28;20343;-68
2023/04/07 19:01:58;;;;;;;2.97;2.75;;;;;;;10.96;74.35;100403.31;10439311;28;20171;-68
2023/04/07 19:06:59;;;;;;;2.08;1.88;;;;;;;10.88;73.57;100400.41;10435303;28;20075;-66
2023/04/07 19:12:01;;;;;;;1.70;1.60;;;;;;;10.87;72.76;100408.50;10437503;28;20092;-67
2023/04/07 19:17:02;;;;;;;2.00;1.80;;;;;;;10.83;71.96;100412.41;10431227;28;20056;-64
2023/04/07 19:22:04;;;;;;;2.40;1.90;;;;;;;10.59;72.36;100413.38;10438164;28;20048;-65
2023/04/07 19:27:05;;;;;;;2.42;2.22;;;;;;;10.58;71.87;100417.84;10434846;28;20057;-66
2023/04/07 19:32:07;;;;;;;2.30;2.10;;;;;;;10.60;72.33;100415.91;10441927;28;20128;-67
2023/04/07 19:37:09;;;;;;;2.30;2.10;;;;;;;10.68;72.24;100425.13;10445591;28;20040;-67
2023/04/07 19:42:10;;;;;;;2.58;2.10;;;;;;;10.62;71.72;100415.78;10427637;28;20431;-67
2023/04/07 19:47:12;;;;;;;2.58;2.38;;;;;;;10.69;72.06;100426.78;10434601;28;20045;-65
2023/04/07 19:52:13;;;;;;;2.70;2.50;;;;;;;10.69;72.14;100426.78;10446960;28;20105;-67
2023/04/07 19:57:15;;;;;;;2.65;2.45;;;;;;;10.66;71.97;100440.34;10428024;28;20579;-66
2023/04/07 20:02:16;;;;;;;2.33;2.05;;;;;;;10.67;71.99;100436.72;10436557;28;20052;-66
2023/04/07 20:07:18;;;;;;;2.42;2.22;;;;;;;10.68;71.99;100435.75;10434440;28;20143;-67
2023/04/07 20:12:19;;;;;;;2.13;1.90;;;;;;;10.59;72.06;100439.97;10432825;28;20073;-67
2023/04/07 20:17:22;;;;;;;2.50;2.30;;;;;;;10.61;72.37;100448.69;10430510;28;20080;-64
2023/04/07 20:22:23;;;;;;;2.47;2.28;;;;;;;10.64;72.42;100442.28;10433033;28;20626;-65
2023/04/07 20:27:25;;;;;;;2.10;1.90;;;;;;;10.62;72.28;100458.38;10435011;28;20253;-67
2023/04/07 20:32:27;;;;;;;2.08;1.88;;;;;;;10.63;72.44;100464.53;10436643;28;20499;-67
2023/04/07 20:37:29;;;;;;;1.90;1.80;;;;;;;10.61;72.20;100454.88;10441254;28;20290;-66
2023/04/07 20:42:30;;;;;;;2.58;1.80;;;;;;;10.64;72.24;100471.56;10437081;28;20128;-68
2023/04/07 20:47:34;;;;;;;2.10;1.90;;;;;;;10.65;72.52;100474.13;10435664;28;20113;-67
2023/04/07 20:52:38;;;;;;;1.75;1.65;;;;;;;10.53;72.20;100459.09;10433948;28;20414;-63
2023/04/07 20:57:40;;;;;;;2.13;1.92;;;;;;;10.56;72.66;100481.00;10436151;28;20052;-66
2023/04/07 21:02:42;;;;;;;1.83;1.73;;;;;;;10.51;72.83;100469.84;10430609;28;20043;-67
2023/04/07 21:07:43;;;;;;;2.20;2.00;;;;;;;10.39;73.48;100473.47;10434093;28;20527;-66
2023/04/07 21:12:45;;;;;;;2.67;2.22;;;;;;;10.35;73.68;100472.84;10430225;28;20076;-66
2023/04/07 21:17:46;;;;;;;2.25;2.05;;;;;;;10.22;73.80;100467.59;10432386;28;20052;-67
2023/04/07 21:22:47;;;;;;;4.82;2.50;;;;;;;10.26;74.46;100479.66;10427697;28;20051;-66
2023/04/07 21:27:49;;;;;;;2.63;2.25;;;;;;;10.26;74.35;100479.66;10428820;28;20072;-68
2023/04/07 21:32:51;;;;;;;3.33;2.50;;;;;;;10.23;74.24;100476.41;10433175;28;20040;-68
2023/04/07 21:37:53;;;;;;;2.95;2.45;;;;;;;10.19;74.59;100466.94;10446800;28;20065;-66
2023/04/07 21:42:56;;;;;;;3.75;2.70;;;;;;;10.20;73.95;100477.47;10425900;28;20075;-66
2023/04/07 21:47:57;;;;;;;2.85;2.65;;;;;;;10.11;74.60;100486.16;10437474;28;20041;-68
2023/04/07 21:52:59;;;;;;;3.13;2.85;;;;;;;10.09;74.87;100488.09;10445317;28;20604;-69
2023/04/07 21:58:00;;;;;;;2.92;2.72;;;;;;;10.00;75.10;100489.63;10447899;28;20056;-70
2023/04/07 22:03:02;;;;;;;2.53;2.30;;;;;;;9.99;74.91;100492.38;10455076;28;20117;-69
2023/04/07 22:08:04;;;;;;;4.40;3.03;;;;;;;9.96;75.60;100495.28;10491912;28;20059;-70
2023/04/07 22:13:05;;;;;;;2.53;2.33;;;;;;;9.95;75.45;100493.56;10467405;28;20494;-67
2023/04/07 22:18:06;;;;;;;2.50;2.30;;;;;;;10.01;75.13;100493.09;10461308;28;20049;-72
2023/04/07 22:23:08;;;;;;;2.42;2.15;;;;;;;10.09;75.24;100498.72;10451703;28;20353;-69
2023/04/07 22:28:09;;;;;;;3.08;2.78;;;;;;;10.00;75.21;100500.25;10449022;28;20406;-70
2023/04/07 22:33:11;;;;;;;2.67;2.47;;;;;;;10.03;75.55;100500.03;10437241;28;20047;-69
2023/04/07 22:38:12;;;;;;;2.90;2.17;;;;;;;10.06;75.23;100512.25;10435169;28;20139;-69
2023/04/07 22:43:14;;;;;;;2.63;2.30;;;;;;;10.07;75.55;100512.13;10439500;28;20551;-71
2023/04/07 22:48:16;;;;;;;2.97;2.28;;;;;;;10.08;75.57;100519.13;10442856;28;20063;-66
2023/04/07 22:53:17;;;;;;;2.05;1.85;;;;;;;10.09;75.47;100512.84;10442078;28;20052;-68
2023/04/07 22:58:19;;;;;;;3.10;2.80;;;;;;;10.09;75.46;100512.84;10436829;28;20117;-69
2023/04/07 23:03:20;;;;;;;3.35;3.05;;;;;;;10.03;75.16;100515.97;10439170;28;20053;-66